createdAt,value
2022-11-21T00:01:26.715Z,5.07
2022-11-21T00:03:54.558Z,5.09
2022-11-21T00:06:23.543Z,5.14
2022-11-21T00:08:51.527Z,5.12
2022-11-21T00:11:19.188Z,5.18
2022-11-21T00:13:47.161Z,5.21
2022-11-21T00:16:16.551Z,5.24
2022-11-21T00:18:44.541Z,5.23
2022-11-21T00:21:16.397Z,5.22
2022-11-21T00:23:45.405Z,5.22
2022-11-21T00:26:16.497Z,5.18
2022-11-21T00:28:45.448Z,5.17
2022-11-21T00:31:23.057Z,5.16
2022-11-21T00:33:50.747Z,5.18
2022-11-21T00:36:18.573Z,5.16
2022-11-21T00:38:46.391Z,5.17
2022-11-21T00:41:14.153Z,5.18
2022-11-21T00:43:41.784Z,5.21
2022-11-21T00:46:09.539Z,5.24
2022-11-21T00:48:37.253Z,5.26
2022-11-21T00:51:05.052Z,5.27
2022-11-21T00:53:32.674Z,5.29
2022-11-21T00:56:00.459Z,5.29
2022-11-21T00:58:28.531Z,5.28
2022-11-21T01:01:09.197Z,5.28
2022-11-21T01:03:37.096Z,5.26
2022-11-21T01:06:11.842Z,5.26
2022-11-21T01:08:43.329Z,5.30
2022-11-21T01:11:13.841Z,5.32
2022-11-21T01:13:42.408Z,5.34
2022-11-21T01:16:24.673Z,5.34
2022-11-21T01:18:52.896Z,5.42
2022-11-21T01:21:30.457Z,5.45
2022-11-21T01:24:02.743Z,5.46
2022-11-21T01:26:33.022Z,5.45
2022-11-21T01:29:00.750Z,5.46
2022-11-21T01:31:30.737Z,5.47
2022-11-21T01:34:00.445Z,5.48
2022-11-21T01:36:32.098Z,5.51
2022-11-21T01:39:04.199Z,5.48
2022-11-21T01:41:37.548Z,5.44
2022-11-21T01:44:44.459Z,5.45
2022-11-21T01:47:13.214Z,5.44
2022-11-21T01:49:42.211Z,5.41
2022-11-21T01:52:26.893Z,5.41
2022-11-21T01:55:10.827Z,5.40
2022-11-21T01:57:48.118Z,5.39
2022-11-21T02:00:24.214Z,5.39
2022-11-21T02:02:58.740Z,5.38
2022-11-21T02:05:32.677Z,5.46
2022-11-21T02:08:07.939Z,5.54
2022-11-21T02:10:41.243Z,5.58
2022-11-21T02:13:08.906Z,5.59
2022-11-21T02:15:36.737Z,5.56
2022-11-21T02:18:09.574Z,5.56
2022-11-21T02:20:40.372Z,5.54
2022-11-21T02:23:31.597Z,5.47
2022-11-21T02:26:00.007Z,5.47
2022-11-21T02:28:27.974Z,5.52
2022-11-21T02:30:55.652Z,5.55
2022-11-21T02:33:23.422Z,5.47
2022-11-21T02:36:02.759Z,5.36
2022-11-21T02:38:38.286Z,5.29
2022-11-21T02:41:26.484Z,5.24
2022-11-21T02:44:07.605Z,5.28
2022-11-21T02:46:36.137Z,5.23
2022-11-21T02:49:09.402Z,5.23
2022-11-21T02:51:37.033Z,5.28
2022-11-21T02:54:04.777Z,5.26
2022-11-21T02:56:32.404Z,5.28
2022-11-21T02:59:00.367Z,5.32
2022-11-21T03:01:28.036Z,5.28
2022-11-21T03:03:55.734Z,5.26
2022-11-21T03:06:23.399Z,5.19
2022-11-21T03:08:51.130Z,5.13
2022-11-21T03:11:18.825Z,5.08
2022-11-21T03:13:46.477Z,5.09
2022-11-21T03:16:14.129Z,5.11
2022-11-21T03:18:41.821Z,5.12
2022-11-21T03:21:09.471Z,5.14
2022-11-21T03:23:37.095Z,5.16
2022-11-21T03:26:04.836Z,5.25
2022-11-21T03:28:32.479Z,5.25
2022-11-21T03:31:00.153Z,5.24
2022-11-21T03:33:27.818Z,5.23
2022-11-21T03:35:55.458Z,5.10
2022-11-21T03:38:23.257Z,5.03
2022-11-21T03:40:50.952Z,4.99
2022-11-21T03:43:18.577Z,4.94
2022-11-21T03:45:47.881Z,5.01
2022-11-21T03:48:15.856Z,5.04
2022-11-21T03:50:44.519Z,4.99
2022-11-21T03:53:12.219Z,4.92
2022-11-21T03:55:39.854Z,4.80
2022-11-21T03:58:07.520Z,4.85
2022-11-21T04:00:35.220Z,4.88
2022-11-21T04:03:03.126Z,4.87
2022-11-21T04:05:30.743Z,4.83
2022-11-21T04:07:58.620Z,4.85
2022-11-21T04:10:26.311Z,4.94
2022-11-21T04:12:53.918Z,4.86
2022-11-21T04:15:21.640Z,4.89
2022-11-21T04:17:49.361Z,4.98
2022-11-21T04:20:17.156Z,4.93
2022-11-21T04:22:44.903Z,4.89
2022-11-21T04:25:13.853Z,4.86
2022-11-21T04:27:41.564Z,4.74
2022-11-21T04:30:10.073Z,4.64
2022-11-21T04:32:37.729Z,4.62
2022-11-21T04:35:06.207Z,4.57
2022-11-21T04:37:34.057Z,4.54
2022-11-21T04:40:01.699Z,4.56
2022-11-21T04:42:29.342Z,4.54
2022-11-21T04:44:56.975Z,4.59
2022-11-21T04:47:24.642Z,4.56
2022-11-21T04:49:52.270Z,4.44
2022-11-21T04:52:19.966Z,4.41
2022-11-21T04:54:48.109Z,4.41
2022-11-21T04:57:15.816Z,4.43
2022-11-21T04:59:43.469Z,4.44
2022-11-21T05:02:11.278Z,4.37
2022-11-21T05:04:39.262Z,4.31
2022-11-21T05:07:06.968Z,4.33
2022-11-21T05:09:34.614Z,4.29
2022-11-21T05:12:20.846Z,4.32
2022-11-21T05:14:48.545Z,4.39
2022-11-21T05:17:17.089Z,4.40
2022-11-21T05:19:44.765Z,4.38
2022-11-21T05:22:12.650Z,4.40
2022-11-21T05:24:40.408Z,4.38
2022-11-21T05:27:08.035Z,4.41
2022-11-21T05:29:35.975Z,4.41
2022-11-21T05:32:03.867Z,4.34
2022-11-21T05:34:31.597Z,4.30
2022-11-21T05:36:59.289Z,4.30
2022-11-21T05:39:27.525Z,4.40
2022-11-21T05:41:58.481Z,4.43
2022-11-21T05:44:30.776Z,4.43
2022-11-21T05:46:58.752Z,4.50
2022-11-21T05:49:26.467Z,4.50
2022-11-21T05:51:54.124Z,4.53
2022-11-21T05:54:21.740Z,4.46
2022-11-21T05:56:49.511Z,4.44
2022-11-21T05:59:17.217Z,4.43
2022-11-21T06:02:03.368Z,4.45
2022-11-21T06:04:31.135Z,4.58
2022-11-21T06:06:59.959Z,4.49
2022-11-21T06:09:27.828Z,4.38
2022-11-21T06:11:55.495Z,4.25
2022-11-21T06:14:23.188Z,4.20
2022-11-21T06:16:51.127Z,4.23
2022-11-21T06:19:18.889Z,4.25
2022-11-21T06:21:46.542Z,4.32
2022-11-21T06:24:18.095Z,4.39
2022-11-21T06:26:48.496Z,4.40
2022-11-21T06:29:16.928Z,4.47
2022-11-21T06:31:44.582Z,4.56
2022-11-21T06:34:12.321Z,4.53
2022-11-21T06:36:39.968Z,4.48
2022-11-21T06:39:07.801Z,4.40
2022-11-21T06:41:35.474Z,4.37
2022-11-21T06:44:03.200Z,4.47
2022-11-21T06:46:30.864Z,4.45
2022-11-21T06:48:58.625Z,4.44
2022-11-21T06:51:26.390Z,4.45
2022-11-21T06:53:57.837Z,4.52
2022-11-21T06:56:29.572Z,4.61
2022-11-21T06:58:58.396Z,4.73
2022-11-21T07:01:26.431Z,4.82
2022-11-21T07:03:55.019Z,4.83
2022-11-21T07:06:23.415Z,4.82
2022-11-21T07:09:17.637Z,4.88
2022-11-21T07:11:43.399Z,5.02
2022-11-21T07:14:11.189Z,5.16
2022-11-21T07:16:39.048Z,5.34
2022-11-21T07:19:06.785Z,5.38
2022-11-21T07:21:34.580Z,5.42
2022-11-21T07:24:02.294Z,5.49
2022-11-21T07:26:29.987Z,5.63
2022-11-21T07:28:58.712Z,5.76
2022-11-21T07:31:26.681Z,5.78
2022-11-21T07:33:54.613Z,5.80
2022-11-21T07:36:22.312Z,5.84
2022-11-21T07:38:50.072Z,5.90
2022-11-21T07:41:20.494Z,5.94
2022-11-21T07:43:48.224Z,5.98
2022-11-21T07:46:15.871Z,6.08
2022-11-21T07:48:43.480Z,6.10
2022-11-21T07:51:11.396Z,6.11
2022-11-21T07:53:39.047Z,6.17
2022-11-21T07:56:09.524Z,6.25
2022-11-21T07:58:37.639Z,6.34
2022-11-21T08:01:07.139Z,6.43
2022-11-21T08:03:35.234Z,6.35
2022-11-21T08:06:04.940Z,6.30
2022-11-21T08:08:32.674Z,6.29
2022-11-21T08:11:05.716Z,6.28
2022-11-21T08:13:35.399Z,6.31
2022-11-21T08:16:04.471Z,6.38
2022-11-21T08:18:33.314Z,6.46
2022-11-21T08:21:02.847Z,6.46
2022-11-21T08:23:31.756Z,6.49
2022-11-21T08:25:59.709Z,6.57
2022-11-21T08:28:27.652Z,6.62
2022-11-21T08:30:55.381Z,6.70
2022-11-21T08:33:23.105Z,6.72
2022-11-21T08:35:50.732Z,6.72
2022-11-21T08:38:18.394Z,6.78
2022-11-21T08:40:46.080Z,6.81
2022-11-21T08:43:13.702Z,6.88
2022-11-21T08:45:41.421Z,6.88
2022-11-21T08:48:11.546Z,6.93
2022-11-21T08:50:39.575Z,7.01
2022-11-21T08:53:07.424Z,7.03
2022-11-21T08:55:35.241Z,7.06
2022-11-21T08:58:03.303Z,7.11
2022-11-21T09:00:30.991Z,7.15
2022-11-21T09:02:58.625Z,7.18
2022-11-21T09:05:26.258Z,7.26
2022-11-21T09:07:57.704Z,7.32
2022-11-21T09:10:29.446Z,7.37
2022-11-21T09:13:00.197Z,7.42
2022-11-21T09:15:47.924Z,7.48
2022-11-21T09:18:15.804Z,7.52
2022-11-21T09:20:44.956Z,7.58
2022-11-21T09:23:15.812Z,7.66
2022-11-21T09:25:45.246Z,7.70
2022-11-21T09:28:14.239Z,7.74
2022-11-21T09:30:42.925Z,7.78
2022-11-21T09:33:19.229Z,7.82
2022-11-21T09:35:48.084Z,7.85
2022-11-21T09:38:18.623Z,7.88
2022-11-21T09:40:50.221Z,7.89
2022-11-21T09:43:55.858Z,7.88
2022-11-21T09:46:32.016Z,7.94
2022-11-21T09:49:11.012Z,7.94
2022-11-21T09:51:41.583Z,7.92
2022-11-21T09:54:19.620Z,7.92
2022-11-21T09:56:48.676Z,7.97
2022-11-21T09:59:35.725Z,8.00
2022-11-21T10:02:15.243Z,8.00
2022-11-21T10:04:43.894Z,7.97
2022-11-21T10:07:26.980Z,7.94
2022-11-21T10:10:09.071Z,7.93
2022-11-21T10:12:54.568Z,7.94
2022-11-21T10:15:57.609Z,7.99
2022-11-21T10:18:53.733Z,8.00
2022-11-21T10:21:24.196Z,7.98
2022-11-21T10:24:29.567Z,7.95
2022-11-21T10:27:07.768Z,7.97
2022-11-21T10:29:43.093Z,8.03
2022-11-21T10:32:27.075Z,8.06
2022-11-21T10:35:34.485Z,8.06
2022-11-21T10:38:13.447Z,8.09
2022-11-21T10:40:47.577Z,8.09
2022-11-21T10:44:04.384Z,8.08
2022-11-21T10:46:32.032Z,8.07
2022-11-21T10:49:03.398Z,8.05
2022-11-21T10:51:52.987Z,8.07
2022-11-21T10:54:32.948Z,8.11
2022-11-21T10:57:15.796Z,8.12
2022-11-21T11:00:00.872Z,8.14
2022-11-21T11:02:28.861Z,8.19
2022-11-21T11:05:21.825Z,8.23
2022-11-21T11:08:14.168Z,8.28
2022-11-21T11:10:45.363Z,8.32
2022-11-21T11:13:45.938Z,8.35
2022-11-21T11:16:21.417Z,8.36
2022-11-21T11:19:17.497Z,8.40
2022-11-21T11:21:46.471Z,8.44
2022-11-21T11:24:14.098Z,8.45
2022-11-21T11:26:48.529Z,8.46
2022-11-21T11:29:22.291Z,8.50
2022-11-21T11:32:00.845Z,8.52
2022-11-21T11:35:00.614Z,8.52
2022-11-21T11:37:42.143Z,8.51
2022-11-21T11:40:38.177Z,8.52
2022-11-21T11:44:26.476Z,8.55
2022-11-21T11:47:32.300Z,8.54
2022-11-21T11:50:19.243Z,8.56
2022-11-21T11:53:13.064Z,8.59
2022-11-21T11:56:03.027Z,8.59
2022-11-21T11:58:44.875Z,8.64
2022-11-21T12:01:22.013Z,8.69
2022-11-21T12:04:03.226Z,8.66
2022-11-21T12:07:46.661Z,8.65
2022-11-21T12:09:56.159Z,8.68
2022-11-21T12:12:42.435Z,8.69
2022-11-21T12:15:37.999Z,8.69
2022-11-21T12:18:21.037Z,8.69
2022-11-21T12:21:15.361Z,8.67
2022-11-21T12:23:58.866Z,8.67
2022-11-21T12:26:59.151Z,8.66
2022-11-21T12:30:00.989Z,8.69
2022-11-21T12:32:47.738Z,8.73
2022-11-21T12:36:17.795Z,8.78
2022-11-21T12:39:11.183Z,8.79
2022-11-21T12:42:27.771Z,8.85
2022-11-21T12:45:24.473Z,8.88
2022-11-21T12:48:32.465Z,8.94
2022-11-21T12:52:03.259Z,9.01
2022-11-21T12:54:49.595Z,9.04
2022-11-21T12:57:29.402Z,9.05
2022-11-21T13:00:32.963Z,9.06
2022-11-21T13:03:45.583Z,9.04
2022-11-21T13:06:43.359Z,9.07
2022-11-21T13:09:20.414Z,9.10
2022-11-21T13:12:06.620Z,9.11
2022-11-21T13:14:35.306Z,9.12
2022-11-21T13:17:36.873Z,9.14
2022-11-21T13:20:15.580Z,9.11
2022-11-21T13:22:43.191Z,9.07
2022-11-21T13:25:30.111Z,9.05
2022-11-21T13:28:19.717Z,9.02
2022-11-21T13:30:50.616Z,8.98
2022-11-21T13:33:39.488Z,8.96
2022-11-21T13:36:28.956Z,8.92
2022-11-21T13:38:56.642Z,8.91
2022-11-21T13:41:55.439Z,8.87
2022-11-21T13:44:41.911Z,8.84
2022-11-21T13:47:09.721Z,8.83
2022-11-21T13:49:43.712Z,8.82
2022-11-21T13:52:39.524Z,8.78
2022-11-21T13:55:38.918Z,8.73
2022-11-21T13:58:24.637Z,8.61
2022-11-21T14:01:55.173Z,8.52
2022-11-21T14:05:05.081Z,8.40
2022-11-21T14:07:36.964Z,8.31
2022-11-21T14:10:30.694Z,8.25
2022-11-21T14:12:59.861Z,8.22
2022-11-21T14:15:52.729Z,8.17
2022-11-21T14:18:25.627Z,8.12
2022-11-21T14:21:00.603Z,8.06
2022-11-21T14:23:34.207Z,7.96
2022-11-21T14:26:14.083Z,7.92
2022-11-21T14:28:41.794Z,7.89
2022-11-21T14:31:12.351Z,7.83
2022-11-21T14:33:43.015Z,7.75
2022-11-21T14:36:24.990Z,7.70
2022-11-21T14:39:35.444Z,7.67
2022-11-21T14:41:57.614Z,7.65
2022-11-21T14:44:26.280Z,7.62
2022-11-21T14:47:23.446Z,7.57
2022-11-21T14:49:56.439Z,7.53
2022-11-21T14:52:32.504Z,7.50
2022-11-21T14:55:29.002Z,7.46
2022-11-21T14:57:57.413Z,7.44
2022-11-21T15:00:59.073Z,7.42
2022-11-21T15:03:23.696Z,7.41
2022-11-21T15:06:07.073Z,7.41
2022-11-21T15:12:05.843Z,7.40
2022-11-21T15:14:38.845Z,7.39
2022-11-21T15:17:13.595Z,7.40
2022-11-21T15:19:43.367Z,7.40
2022-11-21T15:22:32.384Z,7.41
2022-11-21T15:25:19.339Z,7.43
2022-11-21T15:28:09.958Z,7.44
2022-11-21T15:30:38.292Z,7.45
2022-11-21T15:33:07.617Z,7.43
2022-11-21T15:35:42.626Z,7.42
2022-11-21T15:38:53.376Z,7.43
2022-11-21T15:41:20.978Z,7.43
2022-11-21T15:43:53.116Z,7.45
2022-11-21T15:46:37.849Z,7.46
2022-11-21T15:52:10.396Z,7.48
2022-11-21T15:54:38.351Z,7.51
2022-11-21T15:57:06.040Z,7.49
2022-11-21T15:57:13.839Z,7.47
2022-11-21T15:59:33.789Z,7.50
2022-11-21T16:02:01.438Z,7.52
2022-11-21T16:04:29.151Z,7.55
2022-11-21T16:06:56.927Z,7.56
2022-11-21T16:09:25.148Z,7.56
2022-11-21T16:11:52.827Z,7.57
2022-11-21T16:14:20.463Z,7.59
2022-11-21T16:16:48.197Z,7.59
2022-11-21T16:19:16.149Z,7.61
2022-11-21T16:21:43.936Z,7.63
2022-11-21T16:24:11.633Z,7.64
2022-11-21T16:26:39.339Z,7.67
2022-11-21T16:29:07.023Z,7.68
2022-11-21T16:31:34.846Z,7.68
2022-11-21T16:34:02.825Z,7.70
2022-11-21T16:36:32.018Z,7.72
2022-11-21T16:39:07.847Z,7.73
2022-11-21T16:41:39.364Z,7.78
2022-11-21T16:44:14.066Z,7.80
2022-11-21T16:46:45.125Z,7.83
2022-11-21T16:49:13.004Z,7.83
2022-11-21T16:51:41.085Z,7.82
2022-11-21T16:54:09.682Z,7.84
2022-11-21T16:56:38.111Z,7.89
2022-11-21T16:59:05.821Z,7.91
2022-11-21T17:01:33.707Z,7.97
2022-11-21T17:04:01.550Z,8.08
2022-11-21T17:06:31.311Z,8.18
2022-11-21T17:09:02.068Z,8.26
2022-11-21T17:11:31.894Z,8.28
2022-11-21T17:14:04.211Z,8.23
2022-11-21T17:16:34.332Z,8.18
2022-11-21T17:19:04.448Z,8.13
2022-11-21T17:21:33.364Z,8.12
2022-11-21T17:24:01.144Z,8.09
2022-11-21T17:26:30.014Z,8.01
2022-11-21T17:29:01.304Z,7.89
2022-11-21T17:31:29.645Z,7.77
2022-11-21T17:33:59.145Z,7.66
2022-11-21T17:36:29.533Z,7.53
2022-11-21T17:38:57.529Z,7.41
2022-11-21T17:41:27.554Z,7.30
2022-11-21T17:43:57.884Z,7.23
2022-11-21T17:46:26.239Z,7.16
2022-11-21T17:48:58.827Z,7.13
2022-11-21T17:51:34.256Z,7.08
2022-11-21T17:54:02.841Z,7.04
2022-11-21T17:56:34.065Z,7.01
2022-11-21T17:59:03.619Z,6.99
2022-11-21T18:01:33.066Z,6.97
2022-11-21T18:04:05.761Z,6.97
2022-11-21T18:06:39.397Z,6.93
2022-11-21T18:09:10.027Z,6.87
2022-11-21T18:11:40.483Z,6.81
2022-11-21T18:14:11.499Z,6.76
2022-11-21T18:16:42.735Z,6.68
2022-11-21T18:19:14.343Z,6.66
2022-11-21T18:21:42.437Z,6.65
2022-11-21T18:24:10.223Z,6.67
2022-11-21T18:26:39.830Z,6.70
2022-11-21T18:31:57.380Z,6.82
2022-11-21T18:34:25.024Z,6.85
2022-11-21T18:36:53.681Z,6.86
2022-11-21T18:39:24.880Z,6.90
2022-11-21T18:41:52.760Z,6.92
2022-11-21T18:44:22.512Z,6.94
2022-11-21T18:46:51.176Z,6.94
2022-11-21T18:49:19.143Z,6.95
2022-11-21T18:51:48.317Z,6.94
2022-11-21T18:54:16.719Z,6.92
2022-11-21T18:56:44.708Z,6.91
2022-11-21T18:59:12.417Z,6.90
2022-11-21T19:01:40.587Z,6.88
2022-11-21T19:04:09.340Z,6.84
2022-11-21T19:06:37.075Z,6.85
2022-11-21T19:09:04.832Z,6.85
2022-11-21T19:11:32.570Z,6.85
2022-11-21T19:14:01.067Z,6.84
2022-11-21T19:16:31.285Z,6.83
2022-11-21T19:19:32.367Z,6.83
2022-11-21T19:21:47.802Z,6.81
2022-11-21T19:24:19.374Z,6.81
2022-11-21T19:26:47.298Z,6.78
2022-11-21T19:29:14.941Z,6.72
2022-11-21T19:31:45.550Z,6.65
2022-11-21T19:34:15.406Z,6.55
2022-11-21T19:36:44.410Z,6.46
2022-11-21T19:39:12.496Z,6.37
2022-11-21T19:41:40.610Z,6.28
2022-11-21T19:44:09.372Z,6.20
2022-11-21T19:46:39.248Z,6.12
2022-11-21T19:49:08.523Z,6.07
2022-11-21T19:51:40.639Z,6.02
2022-11-21T19:54:12.173Z,5.97
2022-11-21T19:56:40.376Z,5.90
2022-11-21T19:59:12.565Z,5.85
2022-11-21T20:01:41.194Z,5.81
2022-11-21T20:04:11.228Z,5.77
2022-11-21T20:06:42.193Z,5.74
2022-11-21T20:09:17.164Z,5.72
2022-11-21T20:11:48.726Z,5.67
2022-11-21T20:14:21.778Z,5.64
2022-11-21T20:16:52.856Z,5.64
2022-11-21T20:19:24.697Z,5.61
2022-11-21T20:21:53.760Z,5.59
2022-11-21T20:24:21.565Z,5.57
2022-11-21T20:26:49.366Z,5.55
2022-11-21T20:29:17.199Z,5.55
2022-11-21T20:31:45.108Z,5.53
2022-11-21T20:34:14.299Z,5.51
2022-11-21T20:36:43.196Z,5.50
2022-11-21T20:39:16.777Z,5.48
2022-11-21T20:41:46.343Z,5.48
2022-11-21T20:47:09.661Z,5.53
2022-11-21T20:49:37.488Z,5.55
2022-11-21T20:54:53.048Z,5.52
2022-11-21T20:57:20.757Z,5.53
2022-11-21T20:59:48.487Z,5.54
2022-11-21T21:02:16.211Z,5.54
2022-11-21T21:04:44.207Z,5.53
2022-11-21T21:07:12.082Z,5.52
2022-11-21T21:09:40.207Z,5.48
2022-11-21T21:12:08.112Z,5.45
2022-11-21T21:14:36.568Z,5.41
2022-11-21T21:17:04.329Z,5.36
2022-11-21T21:19:32.562Z,5.34
2022-11-21T21:22:00.528Z,5.32
2022-11-21T21:24:28.250Z,5.32
2022-11-21T21:26:55.941Z,5.32
2022-11-21T21:29:23.633Z,5.31
2022-11-21T21:31:53.018Z,5.30
2022-11-21T21:34:22.688Z,5.30
2022-11-21T21:36:51.468Z,5.28
2022-11-21T21:39:19.305Z,5.28
2022-11-21T21:41:47.894Z,5.28
2022-11-21T21:44:16.774Z,5.28
2022-11-21T21:46:45.109Z,5.28
2022-11-21T21:49:13.380Z,5.28
2022-11-21T21:51:41.498Z,5.25
2022-11-21T21:54:18.996Z,5.23
2022-11-21T21:56:48.253Z,5.20
2022-11-21T21:59:17.846Z,5.22
2022-11-21T22:01:45.807Z,5.23
2022-11-21T22:04:13.737Z,5.26
2022-11-21T22:06:41.782Z,5.27
2022-11-21T22:09:09.660Z,5.28
2022-11-21T22:11:39.257Z,5.29
2022-11-21T22:14:12.701Z,5.32
2022-11-21T22:16:42.732Z,5.31
2022-11-21T22:19:10.501Z,5.30
2022-11-21T22:21:39.322Z,5.31
2022-11-21T22:24:31.536Z,5.32
2022-11-21T22:26:59.431Z,5.33
2022-11-21T22:29:27.333Z,5.34
2022-11-21T22:31:55.184Z,5.33
2022-11-21T22:34:23.249Z,5.32
2022-11-21T22:36:50.945Z,5.34
2022-11-21T22:39:18.703Z,5.33
2022-11-21T22:41:46.900Z,5.32
2022-11-21T22:44:14.691Z,5.32
2022-11-21T22:46:42.385Z,5.33
2022-11-21T22:49:10.197Z,5.32
2022-11-21T22:51:38.114Z,5.32
2022-11-21T22:54:06.035Z,5.28
2022-11-21T22:56:33.737Z,5.26
2022-11-21T22:59:01.429Z,5.25
2022-11-21T23:01:29.196Z,5.25
2022-11-21T23:03:57.031Z,5.26
2022-11-21T23:06:26.764Z,5.29
2022-11-21T23:08:57.752Z,5.26
2022-11-21T23:11:29.033Z,5.26
2022-11-21T23:13:57.252Z,5.22
2022-11-21T23:16:25.840Z,5.20
2022-11-21T23:18:55.421Z,5.17
2022-11-21T23:21:23.295Z,5.14
2022-11-21T23:23:51.063Z,5.13
2022-11-21T23:26:19.251Z,5.10
2022-11-21T23:28:47.489Z,5.09
2022-11-21T23:31:15.655Z,5.07
2022-11-21T23:33:43.434Z,5.06
2022-11-21T23:36:11.269Z,5.05
2022-11-21T23:38:39.185Z,5.05
2022-11-21T23:41:06.927Z,5.04
2022-11-21T23:43:34.690Z,5.05
2022-11-21T23:46:02.662Z,5.06
2022-11-21T23:48:30.436Z,5.06
2022-11-21T23:50:58.266Z,5.05
2022-11-21T23:53:26.101Z,5.05
2022-11-21T23:55:53.892Z,5.05
2022-11-21T23:58:21.615Z,5.04
